Time;durP1;ratioP1;P1;durP2;ratioP2;P2;SDS_P1;SDS_P2;PMS_P1;PMS_P2;Temp;Humidity;BMP_temperature;BMP_pressure;BME280_temperature;BME280_humidity;BME280_pressure;Samples;Min_cycle;Max_cycle;Signal;HPM_P1;HPM_P2
2023/01/10 00:01:33;;;;;;;9.65;2.25;;;4.30;99.90;;;;;;5035044;28;20128;-84
2023/01/10 00:03:59;;;;;;;11.18;2.70;;;4.30;99.90;;;;;;5041275;28;20073;-84
2023/01/10 00:06:25;;;;;;;10.77;2.40;;;4.20;99.90;;;;;;5038819;28;20501;-85
2023/01/10 00:08:50;;;;;;;10.82;2.17;;;4.20;99.90;;;;;;5053847;28;20041;-84
2023/01/10 00:14:00;;;;;;;8.77;2.42;;;4.10;99.90;;;;;;5054290;28;20495;-84
2023/01/10 00:16:25;;;;;;;11.25;2.10;;;4.10;99.90;;;;;;5054790;28;20044;-82
2023/01/10 00:18:51;;;;;;;17.23;2.97;;;4.10;99.90;;;;;;5053361;28;20037;-82
2023/01/10 00:21:17;;;;;;;16.08;3.00;;;4.10;99.90;;;;;;5053905;28;20076;-82
2023/01/10 00:23:43;;;;;;;13.10;2.25;;;4.10;99.90;;;;;;5037226;28;20360;-82
2023/01/10 00:26:09;;;;;;;14.73;2.40;;;4.10;99.90;;;;;;5039596;28;20041;-81
2023/01/10 00:28:35;;;;;;;24.33;3.00;;;4.20;99.90;;;;;;5049992;28;20044;-82
2023/01/10 00:31:05;;;;;;;12.20;2.28;;;4.20;99.90;;;;;;5054192;28;20095;-82
2023/01/10 00:33:37;;;;;;;16.27;2.83;;;4.30;99.90;;;;;;5052864;28;20486;-81
2023/01/10 00:36:06;;;;;;;15.73;2.67;;;4.40;99.90;;;;;;5018873;28;20038;-79
2023/01/10 00:38:33;;;;;;;15.98;2.90;;;4.40;99.90;;;;;;5040913;28;20084;-81
2023/01/10 00:40:58;;;;;;;17.38;3.03;;;4.40;99.90;;;;;;5054029;28;20036;-81
2023/01/10 00:46:09;;;;;;;14.45;3.00;;;4.50;99.90;;;;;;5053104;28;20041;-83
2023/01/10 00:48:35;;;;;;;16.23;2.97;;;4.60;99.90;;;;;;5055899;28;20383;-84
2023/01/10 00:51:01;;;;;;;19.75;3.03;;;4.60;99.90;;;;;;5054949;28;20105;-84
2023/01/10 00:53:26;;;;;;;16.38;2.80;;;4.60;99.90;;;;;;5055197;28;20498;-84
2023/01/10 00:55:55;;;;;;;16.08;2.70;;;4.70;99.90;;;;;;5044530;28;20080;-84
2023/01/10 00:58:21;;;;;;;14.60;2.55;;;4.70;99.90;;;;;;5049974;28;20087;-84
2023/01/10 01:00:48;;;;;;;16.38;2.80;;;4.80;99.90;;;;;;5038307;28;20043;-84
2023/01/10 01:03:16;;;;;;;18.48;3.10;;;4.90;99.90;;;;;;5055610;28;20418;-84
2023/01/10 01:05:43;;;;;;;13.45;3.22;;;4.90;99.90;;;;;;5054246;28;20037;-84
2023/01/10 01:08:10;;;;;;;20.10;2.67;;;4.90;99.90;;;;;;5054150;28;20545;-85
2023/01/10 01:10:35;;;;;;;18.33;3.40;;;4.90;99.90;;;;;;5053991;28;20039;-84
2023/01/10 01:13:19;;;;;;;11.60;2.58;;;5.00;99.90;;;;;;5042114;28;20065;-83
2023/01/10 01:15:45;;;;;;;19.08;3.28;;;5.00;99.90;;;;;;5051574;28;20060;-85
2023/01/10 01:18:13;;;;;;;12.40;2.75;;;5.00;99.90;;;;;;5038143;28;20048;-83
2023/01/10 01:20:39;;;;;;;16.80;2.78;;;5.00;99.90;;;;;;5053502;28;20043;-84
2023/01/10 01:23:05;;;;;;;10.60;2.70;;;4.90;99.90;;;;;;5028615;28;20033;-85
2023/01/10 01:25:31;;;;;;;14.52;3.17;;;4.80;99.90;;;;;;5050617;28;20037;-85
2023/01/10 01:27:57;;;;;;;24.88;3.38;;;4.90;99.90;;;;;;5052495;28;20414;-84
2023/01/10 01:30:23;;;;;;;19.75;2.65;;;4.80;99.90;;;;;;5051508;28;20040;-84
2023/01/10 01:32:48;;;;;;;14.82;2.97;;;4.80;99.90;;;;;;5035849;28;20071;-84
2023/01/10 01:35:15;;;;;;;15.45;2.72;;;4.80;99.90;;;;;;5037212;28;20086;-84
2023/01/10 01:37:42;;;;;;;16.23;2.65;;;4.80;99.90;;;;;;5052733;28;20530;-84
2023/01/10 01:40:13;;;;;;;13.80;3.05;;;4.80;99.90;;;;;;5053692;28;20072;-85
2023/01/10 01:42:38;;;;;;;17.98;2.80;;;4.90;99.90;;;;;;5053680;28;20465;-84
2023/01/10 01:45:07;;;;;;;13.23;2.75;;;4.90;99.90;;;;;;5052548;28;20079;-84
2023/01/10 01:47:42;;;;;;;15.63;2.72;;;4.90;99.90;;;;;;5034691;28;20222;-83
2023/01/10 01:50:23;;;;;;;16.77;3.22;;;4.80;99.90;;;;;;5033402;28;20037;-84
2023/01/10 01:52:53;;;;;;;14.05;3.10;;;4.80;99.90;;;;;;5053323;28;20033;-84
2023/01/10 01:55:19;;;;;;;18.45;3.20;;;4.90;99.90;;;;;;5053506;28;20068;-84
2023/01/10 01:57:48;;;;;;;20.05;2.80;;;4.90;99.90;;;;;;5053209;28;20041;-84
2023/01/10 02:00:14;;;;;;;16.30;2.70;;;4.90;99.90;;;;;;5054686;28;20526;-84
2023/01/10 02:02:52;;;;;;;14.82;2.30;;;4.90;99.90;;;;;;5052683;28;20117;-84
2023/01/10 02:05:21;;;;;;;12.15;2.22;;;5.00;99.90;;;;;;5042125;28;20043;-84
2023/01/10 02:07:51;;;;;;;14.60;2.60;;;5.10;99.90;;;;;;5052529;28;20044;-85
2023/01/10 02:10:24;;;;;;;13.15;2.38;;;5.00;99.90;;;;;;5055219;28;20132;-82
2023/01/10 02:12:52;;;;;;;18.17;2.80;;;5.00;99.90;;;;;;5052457;28;20044;-84
2023/01/10 02:15:18;;;;;;;17.65;2.72;;;5.10;99.90;;;;;;5052983;28;20396;-84
2023/01/10 02:17:50;;;;;;;14.48;2.85;;;5.10;99.90;;;;;;5052290;28;20044;-84
2023/01/10 02:20:18;;;;;;;16.98;3.20;;;5.20;99.90;;;;;;5045617;28;20048;-84
2023/01/10 02:23:14;;;;;;;14.07;3.67;;;5.20;99.90;;;;;;5032140;28;20380;-84
2023/01/10 02:26:29;;;;;;;17.98;3.00;;;5.20;99.90;;;;;;5045618;28;20049;-84
2023/01/10 02:29:25;;;;;;;16.25;2.78;;;5.20;99.90;;;;;;5051173;28;20055;-86
2023/01/10 02:31:51;;;;;;;12.85;2.25;;;5.10;99.90;;;;;;5051537;28;20144;-84
2023/01/10 02:34:29;;;;;;;20.05;2.53;;;5.10;99.90;;;;;;5051941;28;20069;-84
2023/01/10 02:37:06;;;;;;;11.93;2.50;;;5.00;99.90;;;;;;5048214;28;20123;-84
2023/01/10 02:39:45;;;;;;;12.48;3.13;;;5.00;99.90;;;;;;5015426;28;20407;-84
2023/01/10 02:42:37;;;;;;;14.82;3.00;;;4.80;99.90;;;;;;5048391;28;20037;-84
2023/01/10 02:45:16;;;;;;;13.00;2.40;;;4.90;99.90;;;;;;5045907;28;20045;-84
2023/01/10 02:47:42;;;;;;;15.38;3.65;;;4.80;99.90;;;;;;5047910;28;20057;-84
2023/01/10 02:50:47;;;;;;;13.00;3.05;;;4.80;99.90;;;;;;5050967;28;20516;-85
2023/01/10 02:53:18;;;;;;;16.55;3.00;;;4.80;99.90;;;;;;5020495;28;20134;-84
2023/01/10 02:56:15;;;;;;;17.02;3.03;;;4.90;99.90;;;;;;5054234;28;20045;-85
2023/01/10 02:58:41;;;;;;;12.82;2.53;;;4.90;99.90;;;;;;5052958;28;20037;-83
2023/01/10 03:01:20;;;;;;;14.85;2.83;;;4.90;99.90;;;;;;5038918;28;20131;-84
2023/01/10 03:04:16;;;;;;;19.33;3.47;;;5.00;99.90;;;;;;5050794;28;20395;-83
2023/01/10 03:06:53;;;;;;;16.10;3.00;;;5.10;99.90;;;;;;5034152;28;20037;-82
2023/01/10 03:09:19;;;;;;;18.67;2.85;;;5.10;99.90;;;;;;5055525;28;20049;-84
2023/01/10 03:11:46;;;;;;;15.88;2.95;;;5.20;99.90;;;;;;5039715;28;20051;-84
2023/01/10 03:14:21;;;;;;;14.80;2.95;;;5.20;99.90;;;;;;5070409;28;20106;-82
2023/01/10 03:17:01;;;;;;;13.55;2.50;;;5.30;99.90;;;;;;5054602;28;20037;-84
2023/01/10 03:19:31;;;;;;;16.45;2.67;;;5.30;99.90;;;;;;5053950;28;20136;-84
2023/01/10 03:22:00;;;;;;;12.27;2.40;;;5.40;99.90;;;;;;5054832;28;20040;-84
2023/01/10 03:24:48;;;;;;;12.93;2.30;;;5.40;99.90;;;;;;5037325;28;20107;-83
2023/01/10 03:27:31;;;;;;;13.40;2.33;;;5.50;99.90;;;;;;5055355;28;20123;-83
2023/01/10 03:30:11;;;;;;;20.38;3.40;;;5.50;99.90;;;;;;5054181;28;20041;-85
2023/01/10 03:32:37;;;;;;;15.95;2.90;;;5.60;99.90;;;;;;5052448;28;20040;-84
2023/01/10 03:35:04;;;;;;;12.48;2.20;;;5.60;99.90;;;;;;5053519;28;20407;-84
2023/01/10 03:37:54;;;;;;;15.07;2.88;;;5.60;99.90;;;;;;5048443;28;20033;-84
2023/01/10 03:40:25;;;;;;;15.23;3.10;;;5.60;99.90;;;;;;5053430;28;20096;-84
2023/01/10 03:46:11;;;;;;;12.68;2.45;;;5.60;99.90;;;;;;5052323;28;20049;-84
2023/01/10 03:48:41;;;;;;;15.70;2.90;;;5.60;99.90;;;;;;5051704;28;20045;-84
2023/01/10 03:51:08;;;;;;;15.98;3.67;;;5.60;99.90;;;;;;5053715;28;20105;-83
2023/01/10 03:53:37;;;;;;;15.38;2.53;;;5.60;99.90;;;;;;5055446;28;20376;-82
2023/01/10 03:56:03;;;;;;;10.35;2.50;;;5.60;99.90;;;;;;5056844;28;20052;-83
2023/01/10 03:58:29;;;;;;;14.13;2.60;;;5.60;99.90;;;;;;5047124;28;20029;-81
2023/01/10 04:00:55;;;;;;;13.38;3.17;;;5.60;99.90;;;;;;5055843;28;20414;-85
2023/01/10 04:03:21;;;;;;;19.33;2.53;;;5.50;99.90;;;;;;5032703;28;20144;-83
2023/01/10 04:05:47;;;;;;;14.73;2.92;;;5.50;99.90;;;;;;5056665;28;20045;-84
2023/01/10 04:08:12;;;;;;;13.27;2.53;;;5.40;99.90;;;;;;5055004;28;20044;-83
2023/01/10 04:10:38;;;;;;;20.25;3.33;;;5.40;99.90;;;;;;5049550;28;20033;-84
2023/01/10 04:13:04;;;;;;;14.98;3.15;;;5.30;99.90;;;;;;5049760;28;20041;-84
2023/01/10 04:15:29;;;;;;;13.93;2.50;;;5.30;99.90;;;;;;5048133;28;20041;-84
2023/01/10 04:17:55;;;;;;;12.25;2.30;;;5.40;99.90;;;;;;5053160;28;20056;-83
2023/01/10 04:20:21;;;;;;;12.05;2.53;;;5.10;99.90;;;;;;5053364;28;20041;-84
2023/01/10 04:22:48;;;;;;;14.13;2.33;;;5.10;99.90;;;;;;5040045;28;20135;-84
2023/01/10 04:25:14;;;;;;;17.77;3.00;;;5.00;99.90;;;;;;5051640;28;20037;-84
2023/01/10 04:27:40;;;;;;;17.55;3.10;;;5.10;99.90;;;;;;5050811;28;20063;-84
2023/01/10 04:30:07;;;;;;;14.52;2.97;;;5.10;99.90;;;;;;5054116;28;20041;-84
2023/01/10 04:32:32;;;;;;;12.73;2.63;;;5.00;99.90;;;;;;5054457;28;20131;-84
2023/01/10 04:34:58;;;;;;;13.07;2.65;;;5.10;99.90;;;;;;5048611;28;20074;-84
2023/01/10 04:37:23;;;;;;;11.93;2.80;;;5.10;99.90;;;;;;5050436;28;20120;-85
2023/01/10 04:39:49;;;;;;;13.18;2.80;;;5.00;99.90;;;;;;5048603;28;20045;-85
2023/01/10 04:42:15;;;;;;;16.35;3.20;;;5.00;99.90;;;;;;5054508;28;20041;-84
2023/01/10 04:44:41;;;;;;;17.13;2.70;;;5.00;99.90;;;;;;5053221;28;20965;-84
2023/01/10 04:47:07;;;;;;;13.75;2.58;;;4.90;99.90;;;;;;5054373;28;20092;-84
2023/01/10 04:49:32;;;;;;;19.17;3.20;;;4.90;99.90;;;;;;5052235;28;20037;-84
2023/01/10 04:51:58;;;;;;;15.07;3.33;;;4.90;99.90;;;;;;5054419;28;20194;-84
2023/01/10 04:54:23;;;;;;;16.67;3.10;;;5.00;99.90;;;;;;5038089;28;20060;-83
2023/01/10 04:56:49;;;;;;;16.52;2.78;;;5.00;99.90;;;;;;5056775;28;20564;-82
2023/01/10 04:59:15;;;;;;;17.88;3.63;;;5.10;99.90;;;;;;5055539;28;20037;-82
2023/01/10 05:01:40;;;;;;;18.33;3.42;;;5.10;99.90;;;;;;5055954;28;20455;-82
2023/01/10 05:04:06;;;;;;;17.05;3.13;;;5.20;99.90;;;;;;5053974;28;20039;-83
2023/01/10 05:06:31;;;;;;;18.60;3.80;;;5.30;99.90;;;;;;5053806;28;20524;-83
2023/01/10 05:08:57;;;;;;;11.55;3.20;;;5.40;99.90;;;;;;5054181;28;20041;-83
2023/01/10 05:11:23;;;;;;;19.02;2.80;;;5.30;99.90;;;;;;5052379;28;20468;-84
2023/01/10 05:13:49;;;;;;;12.48;2.75;;;5.30;99.90;;;;;;5054832;28;20037;-82
2023/01/10 05:16:15;;;;;;;12.80;2.40;;;5.30;99.90;;;;;;5054088;28;20037;-83
2023/01/10 05:18:41;;;;;;;10.90;2.70;;;5.30;99.90;;;;;;5055400;28;20513;-83
2023/01/10 05:21:11;;;;;;;15.30;2.63;;;5.30;99.90;;;;;;5055313;28;20086;-82
2023/01/10 05:23:38;;;;;;;11.43;2.72;;;5.30;99.90;;;;;;5055979;28;20045;-83
2023/01/10 05:26:09;;;;;;;13.98;2.58;;;5.30;99.90;;;;;;5038232;28;20051;-82
2023/01/10 05:28:35;;;;;;;19.05;3.00;;;5.40;99.90;;;;;;5034519;28;20045;-83
2023/01/10 05:31:01;;;;;;;12.05;2.80;;;5.40;99.90;;;;;;5044577;28;20033;-83
2023/01/10 05:33:26;;;;;;;12.35;2.72;;;5.40;99.90;;;;;;5053342;28;20033;-83
2023/01/10 05:35:52;;;;;;;14.55;3.05;;;5.90;99.90;;;;;;5053735;28;20229;-84
2023/01/10 05:38:17;;;;;;;13.18;2.47;;;5.50;99.90;;;;;;5053500;28;20041;-83
2023/01/10 05:40:43;;;;;;;14.38;2.80;;;5.40;99.90;;;;;;5053444;28;20068;-83
2023/01/10 05:43:10;;;;;;;16.30;3.17;;;5.40;99.90;;;;;;5054547;28;20045;-83
2023/01/10 05:45:36;;;;;;;13.20;2.78;;;5.40;99.90;;;;;;5037431;28;20144;-83
2023/01/10 05:48:02;;;;;;;11.32;2.55;;;5.40;99.90;;;;;;5052036;28;20044;-83
2023/01/10 05:50:27;;;;;;;11.90;2.50;;;5.50;99.90;;;;;;5054940;28;20457;-84
2023/01/10 05:52:53;;;;;;;12.73;2.70;;;5.50;99.90;;;;;;5054128;28;20041;-83
2023/01/10 05:55:18;;;;;;;12.45;2.75;;;5.50;99.90;;;;;;5053920;28;20033;-83
2023/01/10 05:57:44;;;;;;;11.00;2.78;;;5.50;99.90;;;;;;5054422;28;20090;-84
2023/01/10 06:00:10;;;;;;;18.08;2.78;;;5.50;99.90;;;;;;5055214;28;20044;-84
2023/01/10 06:02:36;;;;;;;10.57;2.33;;;5.50;99.90;;;;;;5051694;28;20038;-84
2023/01/10 06:05:01;;;;;;;11.13;2.58;;;5.40;99.90;;;;;;5055107;28;20514;-83
2023/01/10 06:07:27;;;;;;;13.32;2.22;;;5.40;99.90;;;;;;5054395;28;20041;-84
2023/01/10 06:09:52;;;;;;;14.57;2.75;;;5.40;99.90;;;;;;5034350;28;20045;-83
2023/01/10 06:12:18;;;;;;;10.60;2.38;;;5.40;99.90;;;;;;5055789;28;20398;-83
2023/01/10 06:14:44;;;;;;;10.35;2.40;;;5.40;99.90;;;;;;5052796;28;20043;-82
2023/01/10 06:17:09;;;;;;;10.98;2.45;;;5.30;99.90;;;;;;5049938;28;20097;-83
2023/01/10 06:19:35;;;;;;;11.40;2.63;;;5.30;99.90;;;;;;5052483;28;20096;-82
2023/01/10 06:22:02;;;;;;;8.52;2.75;;;5.40;99.90;;;;;;5053417;28;20045;-83
2023/01/10 06:24:31;;;;;;;13.82;2.67;;;5.40;99.90;;;;;;5049175;28;20470;-83
2023/01/10 06:26:56;;;;;;;14.00;2.92;;;5.50;99.90;;;;;;5037880;28;20064;-83
2023/01/10 06:29:22;;;;;;;11.07;2.67;;;5.50;99.90;;;;;;5053809;28;20055;-84
2023/01/10 06:31:47;;;;;;;10.32;2.67;;;5.50;99.90;;;;;;5040837;28;20637;-83
2023/01/10 06:34:13;;;;;;;14.55;2.88;;;5.40;99.90;;;;;;5054102;28;20037;-83
2023/01/10 06:36:38;;;;;;;9.55;2.45;;;5.40;99.90;;;;;;5051820;28;20037;-83
2023/01/10 06:39:04;;;;;;;12.43;2.55;;;5.30;99.90;;;;;;5052652;28;20040;-83
2023/01/10 06:41:29;;;;;;;8.35;2.78;;;5.30;99.90;;;;;;5049263;28;20037;-83
2023/01/10 06:43:55;;;;;;;8.02;2.20;;;5.20;99.90;;;;;;5050626;28;20047;-85
2023/01/10 06:46:20;;;;;;;7.78;2.13;;;5.20;99.90;;;;;;5050297;28;20091;-84
2023/01/10 06:48:46;;;;;;;9.43;2.10;;;5.10;99.90;;;;;;5050414;28;20044;-83
2023/01/10 06:51:14;;;;;;;10.90;2.40;;;5.10;99.90;;;;;;5033787;28;20044;-84
2023/01/10 06:53:39;;;;;;;10.88;2.40;;;5.00;99.90;;;;;;5051176;28;20037;-84
2023/01/10 06:56:06;;;;;;;9.57;2.22;;;5.00;99.90;;;;;;5048579;28;20040;-84
2023/01/10 06:58:32;;;;;;;12.40;2.20;;;5.00;99.90;;;;;;5052337;28;20123;-83
2023/01/10 07:00:57;;;;;;;18.83;2.70;;;4.90;99.90;;;;;;5049910;28;20033;-83
2023/01/10 07:03:23;;;;;;;10.38;2.38;;;4.90;99.90;;;;;;5052505;28;20029;-84
2023/01/10 07:05:49;;;;;;;10.50;2.55;;;4.90;99.90;;;;;;5053057;28;20033;-84
2023/01/10 07:08:15;;;;;;;10.57;2.70;;;4.90;99.90;;;;;;5036339;28;20072;-84
2023/01/10 07:10:41;;;;;;;11.85;3.33;;;4.90;99.90;;;;;;5035437;28;20052;-84
2023/01/10 07:13:07;;;;;;;12.15;2.90;;;5.00;99.90;;;;;;5053072;28;20040;-82
2023/01/10 07:15:33;;;;;;;13.77;3.30;;;5.30;99.90;;;;;;5044092;28;20116;-83
2023/01/10 07:17:58;;;;;;;12.30;2.95;;;5.10;99.90;;;;;;5052588;28;20067;-84
2023/01/10 07:20:24;;;;;;;13.65;3.17;;;5.10;99.90;;;;;;5054987;28;20041;-83
2023/01/10 07:22:58;;;;;;;19.75;3.47;;;5.10;99.90;;;;;;5032907;28;20144;-83
2023/01/10 07:25:25;;;;;;;23.05;4.45;;;5.10;99.90;;;;;;5048391;28;20081;-84
2023/01/10 07:27:50;;;;;;;17.85;3.90;;;5.00;99.90;;;;;;5052494;28;20079;-84
2023/01/10 07:30:16;;;;;;;19.42;3.58;;;5.10;99.90;;;;;;5043652;28;20074;-84
2023/01/10 07:32:41;;;;;;;15.82;3.72;;;5.10;99.90;;;;;;5043552;28;20041;-83
2023/01/10 07:35:07;;;;;;;18.15;3.75;;;5.20;99.90;;;;;;5045029;28;20057;-84
2023/01/10 07:37:33;;;;;;;17.42;3.70;;;5.20;99.90;;;;;;5031234;28;20491;-84
2023/01/10 07:39:58;;;;;;;20.90;4.47;;;5.20;99.90;;;;;;5046803;28;20191;-83
2023/01/10 07:42:24;;;;;;;20.30;4.20;;;5.30;99.90;;;;;;5056152;28;20299;-83
2023/01/10 07:44:50;;;;;;;21.58;4.43;;;5.30;99.90;;;;;;5055996;28;20045;-83
2023/01/10 07:47:15;;;;;;;15.90;4.07;;;5.40;99.90;;;;;;5048811;28;20390;-85
2023/01/10 07:49:41;;;;;;;19.40;4.10;;;5.30;99.90;;;;;;5052445;28;20045;-84
2023/01/10 07:52:08;;;;;;;20.27;3.58;;;5.40;99.90;;;;;;5051455;28;20128;-83
2023/01/10 07:54:34;;;;;;;25.20;4.20;;;5.30;99.90;;;;;;5035431;28;20483;-84
2023/01/10 07:57:00;;;;;;;28.13;4.03;;;5.40;99.90;;;;;;5030711;28;20045;-83
2023/01/10 07:59:25;;;;;;;18.55;4.30;;;5.40;99.90;;;;;;5056196;28;20045;-83
2023/01/10 08:01:52;;;;;;;23.35;5.65;;;5.40;99.90;;;;;;5055786;28;20041;-83
2023/01/10 08:04:18;;;;;;;20.23;4.32;;;5.40;99.90;;;;;;5050360;28;20038;-82
2023/01/10 08:06:44;;;;;;;29.70;4.53;;;5.40;99.90;;;;;;5049503;28;20036;-83
2023/01/10 08:09:10;;;;;;;25.63;4.82;;;5.40;99.90;;;;;;5056229;28;20108;-84
2023/01/10 08:11:35;;;;;;;24.25;4.72;;;5.40;99.90;;;;;;5051685;28;20025;-82
2023/01/10 08:14:01;;;;;;;23.58;4.43;;;5.40;99.90;;;;;;5043554;28;20044;-83
2023/01/10 08:16:27;;;;;;;20.73;4.50;;;5.40;99.90;;;;;;5046120;28;20033;-83
2023/01/10 08:18:52;;;;;;;25.42;4.93;;;5.30;99.90;;;;;;5049858;28;20041;-84
2023/01/10 08:21:18;;;;;;;18.90;4.82;;;5.40;99.90;;;;;;5053058;28;20433;-84
2023/01/10 08:23:43;;;;;;;24.10;5.82;;;5.40;99.90;;;;;;5054245;28;20044;-81
2023/01/10 08:26:09;;;;;;;22.75;5.20;;;5.40;99.90;;;;;;5057419;28;20060;-84
2023/01/10 08:28:34;;;;;;;26.20;4.55;;;5.40;99.90;;;;;;5043196;28;20408;-83
2023/01/10 08:31:09;;;;;;;25.02;5.22;;;5.40;99.90;;;;;;5038150;28;20075;-84
2023/01/10 08:33:39;;;;;;;27.30;5.43;;;5.40;99.90;;;;;;5037463;28;20037;-83
2023/01/10 08:36:05;;;;;;;32.80;5.22;;;5.40;99.90;;;;;;5035274;28;20056;-83
2023/01/10 08:38:30;;;;;;;34.20;5.15;;;5.40;99.90;;;;;;5037576;28;20491;-82
2023/01/10 08:40:57;;;;;;;19.63;4.78;;;5.30;99.90;;;;;;5035116;28;20045;-83
2023/01/10 08:43:23;;;;;;;20.40;4.78;;;5.30;99.90;;;;;;5034140;28;20535;-82
2023/01/10 08:45:49;;;;;;;29.52;4.95;;;5.30;99.90;;;;;;5035713;28;20059;-83
2023/01/10 08:48:14;;;;;;;26.48;5.70;;;5.30;99.90;;;;;;5035856;28;20116;-84
2023/01/10 08:50:40;;;;;;;19.90;4.97;;;5.30;99.90;;;;;;5035316;28;20052;-82
2023/01/10 08:53:06;;;;;;;21.70;4.95;;;5.30;99.90;;;;;;5036062;28;20036;-83
2023/01/10 08:55:34;;;;;;;26.90;4.82;;;5.30;99.90;;;;;;5036254;28;20040;-84
2023/01/10 08:58:00;;;;;;;21.70;4.57;;;5.30;99.90;;;;;;5035649;28;20363;-83
2023/01/10 09:00:26;;;;;;;25.13;4.38;;;5.30;99.90;;;;;;5041486;28;20037;-84
2023/01/10 09:02:52;;;;;;;25.35;4.45;;;5.30;99.90;;;;;;5046185;28;20045;-83
2023/01/10 09:05:17;;;;;;;22.50;4.72;;;5.40;99.90;;;;;;5055936;28;20033;-84
2023/01/10 09:07:43;;;;;;;29.90;4.93;;;5.40;99.90;;;;;;5056612;28;20045;-83
2023/01/10 09:10:09;;;;;;;15.68;4.10;;;5.40;99.90;;;;;;5057804;28;20116;-83
2023/01/10 09:15:23;;;;;;;24.27;4.20;;;5.40;99.90;;;;;;5056758;28;20037;-83
2023/01/10 09:17:51;;;;;;;23.33;4.90;;;5.50;99.90;;;;;;5055566;28;20068;-84
2023/01/10 09:20:16;;;;;;;24.63;4.85;;;5.50;99.90;;;;;;5049914;28;20037;-84
2023/01/10 09:22:42;;;;;;;25.75;5.22;;;5.60;99.90;;;;;;5034858;28;20491;-84
2023/01/10 09:25:08;;;;;;;22.52;4.85;;;5.70;99.90;;;;;;5037478;28;20037;-84
2023/01/10 09:27:33;;;;;;;22.67;5.10;;;5.70;99.90;;;;;;5033177;28;20045;-84
2023/01/10 09:29:59;;;;;;;26.38;4.60;;;5.80;99.90;;;;;;5034888;28;20048;-83
2023/01/10 09:32:25;;;;;;;16.52;4.40;;;5.70;99.90;;;;;;5047154;28;20059;-84
2023/01/10 09:34:50;;;;;;;22.80;5.00;;;5.80;99.90;;;;;;5054133;28;20119;-84
2023/01/10 09:37:16;;;;;;;20.02;5.40;;;5.80;99.90;;;;;;5053839;28;20040;-84
2023/01/10 09:39:42;;;;;;;20.88;4.25;;;5.90;99.90;;;;;;5054052;28;20109;-84
2023/01/10 09:42:38;;;;;;;20.88;4.50;;;5.90;99.90;;;;;;5054074;28;20033;-84
2023/01/10 09:45:18;;;;;;;26.00;4.50;;;5.90;99.90;;;;;;5056467;28;20418;-83
2023/01/10 09:48:04;;;;;;;22.00;5.22;;;6.00;99.90;;;;;;5055138;28;20041;-84
2023/01/10 09:50:45;;;;;;;23.40;4.15;;;6.00;99.90;;;;;;5036029;28;20044;-85
2023/01/10 09:53:15;;;;;;;17.83;4.72;;;6.10;99.90;;;;;;5051513;28;20052;-84
2023/01/10 09:55:42;;;;;;;22.98;4.80;;;6.10;99.90;;;;;;5018153;28;20345;-85
2023/01/10 09:58:14;;;;;;;20.05;4.80;;;6.20;99.90;;;;;;5054398;28;20041;-84
2023/01/10 10:00:43;;;;;;;23.27;4.70;;;6.20;99.90;;;;;;5046119;28;20045;-84
2023/01/10 10:03:21;;;;;;;24.50;4.80;;;6.20;99.90;;;;;;5037683;28;20414;-83
2023/01/10 10:05:48;;;;;;;22.10;4.93;;;6.20;99.90;;;;;;5054036;28;20045;-83
2023/01/10 10:08:17;;;;;;;19.88;4.80;;;6.30;99.90;;;;;;5035500;28;20038;-84
2023/01/10 10:10:48;;;;;;;23.20;4.38;;;6.30;99.90;;;;;;5032524;28;20052;-84
2023/01/10 10:13:29;;;;;;;17.27;4.10;;;6.30;99.90;;;;;;5034732;28;20033;-84
2023/01/10 10:16:29;;;;;;;26.75;4.35;;;6.30;99.90;;;;;;5038254;28;20047;-84
2023/01/10 10:19:14;;;;;;;22.75;4.15;;;6.30;99.90;;;;;;5038357;28;20041;-83
2023/01/10 10:21:59;;;;;;;24.80;4.85;;;6.40;99.90;;;;;;5036662;28;20037;-84
2023/01/10 10:25:03;;;;;;;20.92;3.88;;;6.40;99.90;;;;;;5054188;28;20073;-84
2023/01/10 10:27:46;;;;;;;17.67;4.28;;;6.40;99.90;;;;;;5013907;28;20048;-84
2023/01/10 10:30:19;;;;;;;18.73;4.78;;;6.40;99.90;;;;;;5053377;28;20044;-84
2023/01/10 10:33:19;;;;;;;23.83;5.28;;;6.40;99.90;;;;;;5017713;28;20040;-84
2023/01/10 10:35:54;;;;;;;16.88;4.05;;;6.50;99.90;;;;;;5015998;28;20088;-84
2023/01/10 10:38:30;;;;;;;17.50;4.32;;;6.50;99.90;;;;;;5048111;28;20407;-84
2023/01/10 10:40:59;;;;;;;16.77;4.28;;;6.50;99.90;;;;;;5051566;28;20037;-84
2023/01/10 10:43:36;;;;;;;21.10;4.47;;;6.50;99.90;;;;;;5055752;28;20398;-83
2023/01/10 10:46:11;;;;;;;17.55;3.63;;;6.50;99.90;;;;;;5050879;28;20033;-83
2023/01/10 10:48:45;;;;;;;19.27;3.80;;;6.50;99.90;;;;;;5051831;28;20380;-84
2023/01/10 10:51:24;;;;;;;23.23;4.20;;;6.60;99.90;;;;;;5035100;28;20465;-84
2023/01/10 10:53:50;;;;;;;17.80;4.40;;;6.60;99.90;;;;;;5050024;28;20033;-84
2023/01/10 10:56:20;;;;;;;23.05;4.32;;;6.60;99.90;;;;;;5048577;28;20040;-85
2023/01/10 10:58:48;;;;;;;20.02;4.97;;;6.70;99.90;;;;;;5050747;28;20036;-84
2023/01/10 11:01:15;;;;;;;20.92;4.53;;;6.70;99.90;;;;;;5026996;28;20116;-84
2023/01/10 11:04:00;;;;;;;24.13;4.75;;;6.70;99.90;;;;;;5050906;28;20636;-83
2023/01/10 11:06:29;;;;;;;18.73;4.13;;;6.70;99.90;;;;;;5051979;28;20097;-84
2023/01/10 11:08:59;;;;;;;23.48;5.57;;;6.70;99.90;;;;;;5049319;28;20041;-84
2023/01/10 11:11:27;;;;;;;24.60;5.57;;;6.70;99.90;;;;;;5036069;28;20096;-84
2023/01/10 11:13:58;;;;;;;23.30;6.10;;;6.80;99.90;;;;;;5037836;28;20512;-85
2023/01/10 11:16:26;;;;;;;24.20;6.07;;;6.80;99.90;;;;;;5039946;28;20025;-84
2023/01/10 11:19:15;;;;;;;23.95;6.63;;;6.80;99.90;;;;;;5040528;28;20451;-85
2023/01/10 11:21:44;;;;;;;28.17;6.45;;;6.80;99.90;;;;;;5035669;28;20045;-85
2023/01/10 11:24:21;;;;;;;18.70;5.68;;;6.80;99.90;;;;;;5054210;28;20045;-84
2023/01/10 11:26:47;;;;;;;21.30;6.68;;;6.80;99.90;;;;;;5054663;28;20041;-85
2023/01/10 11:29:17;;;;;;;22.25;6.30;;;6.80;99.90;;;;;;5054272;28;20037;-83
2023/01/10 11:31:44;;;;;;;26.80;7.18;;;6.80;99.90;;;;;;5053977;28;20048;-85
2023/01/10 11:34:37;;;;;;;21.48;7.03;;;6.90;99.90;;;;;;5054572;28;20044;-85
2023/01/10 11:37:27;;;;;;;21.63;8.02;;;6.90;99.90;;;;;;5054818;28;20048;-85
2023/01/10 11:40:22;;;;;;;23.98;7.13;;;6.80;99.90;;;;;;5046529;28;20049;-85
2023/01/10 11:42:49;;;;;;;24.48;7.95;;;6.80;99.90;;;;;;5029311;28;20305;-85
2023/01/10 11:45:18;;;;;;;25.63;8.65;;;6.90;99.90;;;;;;5043773;28;20056;-85
2023/01/10 11:47:53;;;;;;;26.55;7.95;;;6.80;99.90;;;;;;5053378;28;20511;-85
2023/01/10 11:50:26;;;;;;;26.55;7.85;;;6.80;99.90;;;;;;5053887;28;20450;-85
2023/01/10 11:52:53;;;;;;;25.55;7.68;;;6.80;99.90;;;;;;5053838;28;20045;-84
2023/01/10 11:55:21;;;;;;;26.45;8.18;;;6.80;99.90;;;;;;5053662;28;20044;-85
2023/01/10 11:58:14;;;;;;;24.88;8.88;;;6.80;99.90;;;;;;5036893;28;20037;-84
2023/01/10 12:00:48;;;;;;;34.50;8.20;;;6.80;99.90;;;;;;5036303;28;20511;-85
2023/01/10 12:03:28;;;;;;;26.52;7.97;;;6.80;99.90;;;;;;5053254;28;20112;-85
2023/01/10 12:06:04;;;;;;;21.95;7.25;;;6.80;99.90;;;;;;5051405;28;20502;-85
2023/01/10 12:08:36;;;;;;;27.77;7.82;;;6.80;99.90;;;;;;5031146;28;20041;-86
2023/01/10 12:11:16;;;;;;;21.30;6.53;;;6.80;99.90;;;;;;5048559;28;20041;-86
2023/01/10 12:13:51;;;;;;;23.67;7.20;;;6.70;99.90;;;;;;5037832;28;20041;-85
2023/01/10 12:16:21;;;;;;;25.15;7.18;;;6.70;99.90;;;;;;5051367;28;20036;-86
2023/01/10 12:18:49;;;;;;;22.95;6.97;;;6.70;99.90;;;;;;5051575;28;20041;-83
2023/01/10 12:21:19;;;;;;;24.02;6.70;;;6.70;99.90;;;;;;5049531;28;20041;-85
2023/01/10 12:23:47;;;;;;;26.33;6.47;;;6.70;99.90;;;;;;5051184;28;20098;-86
2023/01/10 12:26:13;;;;;;;25.17;6.68;;;6.70;99.90;;;;;;5050091;28;20040;-86
2023/01/10 12:28:44;;;;;;;19.40;5.75;;;6.70;99.90;;;;;;5034208;28;20072;-87
2023/01/10 12:31:13;;;;;;;19.90;6.50;;;6.70;99.90;;;;;;5052617;28;20029;-85
2023/01/10 12:33:45;;;;;;;24.77;6.28;;;6.70;99.90;;;;;;5035686;28;20037;-85
2023/01/10 12:36:45;;;;;;;24.45;7.32;;;6.70;99.90;;;;;;5051721;28;20065;-85
2023/01/10 12:39:18;;;;;;;20.95;6.20;;;6.70;99.90;;;;;;5051081;28;20045;-85
2023/01/10 12:44:51;;;;;;;26.42;7.70;;;6.70;99.90;;;;;;5032717;28;20084;-83
2023/01/10 12:47:21;;;;;;;25.13;7.78;;;6.70;99.90;;;;;;5039681;28;20043;-85
2023/01/10 12:49:49;;;;;;;20.33;6.40;;;6.70;99.90;;;;;;5046836;28;20041;-85
2023/01/10 12:52:51;;;;;;;22.38;5.72;;;6.60;99.90;;;;;;5034966;28;20555;-86
2023/01/10 12:55:18;;;;;;;25.38;6.50;;;6.60;99.90;;;;;;5039187;28;20039;-85
2023/01/10 12:57:48;;;;;;;18.25;6.28;;;6.60;99.90;;;;;;5042628;28;20044;-84
2023/01/10 13:00:29;;;;;;;23.20;6.38;;;6.60;99.90;;;;;;5038685;28;20037;-85
2023/01/10 13:02:58;;;;;;;27.17;6.47;;;6.60;99.90;;;;;;5019773;28;20601;-85
2023/01/10 13:05:27;;;;;;;23.48;6.38;;;6.60;99.90;;;;;;5016576;28;20045;-85
2023/01/10 13:08:03;;;;;;;22.63;5.97;;;6.60;99.90;;;;;;5029403;28;20044;-84
2023/01/10 13:10:30;;;;;;;25.02;5.65;;;6.60;99.90;;;;;;5036787;28;20048;-84
2023/01/10 13:13:09;;;;;;;22.75;6.18;;;6.60;99.90;;;;;;5051351;28;20047;-85
2023/01/10 13:15:40;;;;;;;24.65;6.63;;;6.60;99.90;;;;;;5051590;28;20039;-85
2023/01/10 13:18:27;;;;;;;18.88;5.78;;;6.60;99.90;;;;;;5051299;28;20051;-84